Ada, Kansas
Current Conditions -  °F | °C
As of 9:53 AM on Thursday 18 Dec 2014 (Local Time) from KSLN Reporting Station
Haze Haze  
Wind Chill: -5°   Ceiling: 1100
Heat Index: -2°   Visibility: 6mi
Dew Point: -3°   Wind: 5mph
Humidity: 89%   Direction: 40°NE
Pressure: 30.23"   Gusts: NA
Location:  39.1542°N, 97.5941°W
Report Text: KSLN 181553Z 04004KT 6SM BR FEW006 OVC011 M02/M03 A3023 RMK AO2 SLP250 T10171033
Loading
Personal Weather Stations






























Interactive Weather Map New forecast layout! Learn more

10-Day Weather Forecast

Advertisements
Track Severe Weather on mobile